Piper — WDE6779 — position and weather

sailwx.info

Track history (hours):
 
Tides and Currents Weather Stations Pressure Air Temp Water Temp Dewpoint Dewpoint Depression Visibility Wind Speed Wind Dir Waves Ship Positions

Piper

Owner: ADS MARINE, LLC, MORGAN CITY, LA. More information available from US FCC via Universal Licensing System and Coast Guard Vessel Documentation Center.

Last reported at 2017-Oct-16 22:57 UTC. Time now 2017-Oct-17 20:39 UTC.
Position N 29°50' W 091°59'.

Length 40 m; draft 3 m.

Type: Cargo ship. MMSI: 367384720.

Date/timePositionNaut miles runAvg speedWind from/ knotsBaromVisibWave heightAir tempDewpointWater temp
2017-Oct-16 22:57N 29°50' W 091°59'3 7.4
2017-Oct-16 22:30N 29°49' W 092°03'4 7.1
2017-Oct-16 22:00N 29°48' W 092°07'3 6.5
2017-Oct-16 21:30N 29°47' W 092°10'0 0.3
2017-Oct-16 21:00N 29°47' W 092°10'0 0.0
2017-Oct-16 20:30N 29°47' W 092°10'0 0.0
2017-Oct-16 20:00N 29°47' W 092°10'0 0.0
2017-Oct-16 19:30N 29°47' W 092°10'0 0.0
2017-Oct-16 19:00N 29°47' W 092°10'0 0.0
2017-Oct-16 18:30N 29°47' W 092°10'0 0.0
2017-Oct-16 18:00N 29°47' W 092°10'0 0.0
2017-Oct-16 17:30N 29°47' W 092°10'  
2017-Oct-10 09:18N 29°38' W 092°16'2 7.3
2017-Oct-10 09:00N 29°40' W 092°15'4 7.5
2017-Oct-10 08:30N 29°43' W 092°15'4 7.3
2017-Oct-10 08:00N 29°46' W 092°12'1 2.9
2017-Oct-10 07:30N 29°47' W 092°10'0 0.0
2017-Oct-10 07:00N 29°47' W 092°10'0 0.0
2017-Oct-10 06:30N 29°47' W 092°10'0 0.0
2017-Oct-10 06:00N 29°47' W 092°10'0 0.0
2017-Oct-10 05:30N 29°47' W 092°10'0 0.0
2017-Oct-10 05:00N 29°47' W 092°10'0 0.0
2017-Oct-10 04:30N 29°47' W 092°10'0 0.0
2017-Oct-10 04:00N 29°47' W 092°10'0 0.0
2017-Oct-10 03:30N 29°47' W 092°10'0 0.0
2017-Oct-10 03:00N 29°47' W 092°10'0 0.0
2017-Oct-10 02:30N 29°47' W 092°10'0 0.0
2017-Oct-10 02:00N 29°47' W 092°10'0 0.0
2017-Oct-10 01:30N 29°47' W 092°10'0 0.0
2017-Oct-10 01:00N 29°47' W 092°10'0 0.0
2017-Oct-10 00:30N 29°47' W 092°10'0 0.0
2017-Oct-10 00:00N 29°47' W 092°10'0 0.0
2017-Oct-09 23:30N 29°47' W 092°10'0 0.3
2017-Oct-09 23:00N 29°47' W 092°10'1 2.0
2017-Oct-09 22:30N 29°47' W 092°11'0 0.0
2017-Oct-09 22:00N 29°47' W 092°11'0 0.3
2017-Oct-09 21:30N 29°47' W 092°11'0 0.0
2017-Oct-09 21:00N 29°47' W 092°11'0 0.0
2017-Oct-09 20:30N 29°47' W 092°11'0 0.0
2017-Oct-09 20:00N 29°47' W 092°11'0 0.0
2017-Oct-09 19:30N 29°47' W 092°11'0 0.0
2017-Oct-09 19:00N 29°47' W 092°11'0 0.0
2017-Oct-09 18:30N 29°47' W 092°11'0 0.2
2017-Oct-09 18:00N 29°47' W 092°11'3 5.2
2017-Oct-09 17:30N 29°45' W 092°13'4 7.5
2017-Oct-09 17:00N 29°41' W 092°15'4 7.4
2017-Oct-09 16:30N 29°38' W 092°16'  
Track history (hours):
 
Tides and Currents Weather Stations Pressure Air Temp Water Temp Dewpoint Dewpoint Depression Visibility Wind Speed Wind Dir Waves Ship Positions

Piper

Owner: ADS MARINE, LLC, MORGAN CITY, LA. More information available from US FCC via Universal Licensing System and Coast Guard Vessel Documentation Center.

Last reported at 2017-Oct-16 22:57 UTC. Time now 2017-Oct-17 20:39 UTC.
Position N 29°50' W 091°59'.

Length 40 m; draft 3 m.

Type: Cargo ship. MMSI: 367384720.

Date/timePositionNaut miles runAvg speedWind from/ knotsBaromVisibWave heightAir tempDewpointWater temp
2017-Oct-16 22:57N 29°50' W 091°59'3 7.4
2017-Oct-16 22:30N 29°49' W 092°03'4 7.1
2017-Oct-16 22:00N 29°48' W 092°07'3 6.5
2017-Oct-16 21:30N 29°47' W 092°10'0 0.3
2017-Oct-16 21:00N 29°47' W 092°10'0 0.0
2017-Oct-16 20:30N 29°47' W 092°10'0 0.0
2017-Oct-16 20:00N 29°47' W 092°10'0 0.0
2017-Oct-16 19:30N 29°47' W 092°10'0 0.0
2017-Oct-16 19:00N 29°47' W 092°10'0 0.0
2017-Oct-16 18:30N 29°47' W 092°10'0 0.0
2017-Oct-16 18:00N 29°47' W 092°10'0 0.0
2017-Oct-16 17:30N 29°47' W 092°10'  
2017-Oct-10 09:18N 29°38' W 092°16'2 7.3
2017-Oct-10 09:00N 29°40' W 092°15'4 7.5
2017-Oct-10 08:30N 29°43' W 092°15'4 7.3
2017-Oct-10 08:00N 29°46' W 092°12'1 2.9
2017-Oct-10 07:30N 29°47' W 092°10'0 0.0
2017-Oct-10 07:00N 29°47' W 092°10'0 0.0
2017-Oct-10 06:30N 29°47' W 092°10'0 0.0
2017-Oct-10 06:00N 29°47' W 092°10'0 0.0
2017-Oct-10 05:30N 29°47' W 092°10'0 0.0
2017-Oct-10 05:00N 29°47' W 092°10'0 0.0
2017-Oct-10 04:30N 29°47' W 092°10'0 0.0
2017-Oct-10 04:00N 29°47' W 092°10'0 0.0
2017-Oct-10 03:30N 29°47' W 092°10'0 0.0
2017-Oct-10 03:00N 29°47' W 092°10'0 0.0
2017-Oct-10 02:30N 29°47' W 092°10'0 0.0
2017-Oct-10 02:00N 29°47' W 092°10'0 0.0
2017-Oct-10 01:30N 29°47' W 092°10'0 0.0
2017-Oct-10 01:00N 29°47' W 092°10'0 0.0
2017-Oct-10 00:30N 29°47' W 092°10'0 0.0
2017-Oct-10 00:00N 29°47' W 092°10'0 0.0
2017-Oct-09 23:30N 29°47' W 092°10'0 0.3
2017-Oct-09 23:00N 29°47' W 092°10'1 2.0
2017-Oct-09 22:30N 29°47' W 092°11'0 0.0
2017-Oct-09 22:00N 29°47' W 092°11'0 0.3
2017-Oct-09 21:30N 29°47' W 092°11'0 0.0
2017-Oct-09 21:00N 29°47' W 092°11'0 0.0
2017-Oct-09 20:30N 29°47' W 092°11'0 0.0
2017-Oct-09 20:00N 29°47' W 092°11'0 0.0
2017-Oct-09 19:30N 29°47' W 092°11'0 0.0
2017-Oct-09 19:00N 29°47' W 092°11'0 0.0
2017-Oct-09 18:30N 29°47' W 092°11'0 0.2
2017-Oct-09 18:00N 29°47' W 092°11'3 5.2
2017-Oct-09 17:30N 29°45' W 092°13'4 7.5
2017-Oct-09 17:00N 29°41' W 092°15'4 7.4
2017-Oct-09 16:30N 29°38' W 092°16'  

Dump ship's entire track history